Time;durP1;ratioP1;P1;durP2;ratioP2;P2;SDS_P1;SDS_P2;PMS_P1;PMS_P2;Temp;Humidity;BMP_temperature;BMP_pressure;BME280_temperature;BME280_humidity;BME280_pressure;Samples;Min_cycle;Max_cycle;Signal;HPM_P1;HPM_P2
2021/03/05 00:01:47;;;;;;;90.85;58.50;;;;;;;;;;5014655;28;20045;-66
2021/03/05 00:04:51;;;;;;;78.47;53.97;;;;;;;;;;5014545;28;20053;-67
2021/03/05 00:07:55;;;;;;;86.97;55.85;;;;;;;;;;5014630;28;20045;-67
2021/03/05 00:10:59;;;;;;;89.30;55.40;;;;;;;;;;5014581;28;20036;-67
2021/03/05 00:14:04;;;;;;;86.25;56.28;;;;;;;;;;5014724;28;20492;-66
2021/03/05 00:17:08;;;;;;;94.55;56.67;;;;;;;;;;5002065;28;20045;-67
2021/03/05 00:20:14;;;;;;;91.55;58.20;;;;;;;;;;5014600;28;20037;-67
2021/03/05 00:23:18;;;;;;;89.95;58.10;;;;;;;;;;5014583;28;20044;-67
2021/03/05 00:26:22;;;;;;;96.95;62.28;;;;;;;;;;5013930;28;20053;-67
2021/03/05 00:29:27;;;;;;;91.03;60.03;;;;;;;;;;5014533;28;20065;-68
2021/03/05 00:32:32;;;;;;;99.38;60.40;;;;;;;;;;5014041;28;20052;-67
2021/03/05 00:35:36;;;;;;;100.93;62.65;;;;;;;;;;5013863;28;20512;-67
2021/03/05 00:38:41;;;;;;;100.72;62.90;;;;;;;;;;5013712;28;20037;-67
2021/03/05 00:41:45;;;;;;;96.05;64.13;;;;;;;;;;5014441;28;20041;-67
2021/03/05 00:44:50;;;;;;;111.22;70.20;;;;;;;;;;5013711;28;20053;-67
2021/03/05 00:47:54;;;;;;;103.13;66.68;;;;;;;;;;5001691;28;20516;-67
2021/03/05 00:50:59;;;;;;;109.78;68.53;;;;;;;;;;5001423;28;20045;-67
2021/03/05 00:54:03;;;;;;;104.85;68.30;;;;;;;;;;5001481;28;20052;-67
2021/03/05 00:57:08;;;;;;;105.95;68.65;;;;;;;;;;5013755;28;20041;-67
2021/03/05 01:00:14;;;;;;;105.90;70.38;;;;;;;;;;5013566;28;20049;-67
2021/03/05 01:03:19;;;;;;;104.80;71.13;;;;;;;;;;5001110;28;20048;-67
2021/03/05 01:06:23;;;;;;;109.15;70.70;;;;;;;;;;5013003;28;20401;-67
2021/03/05 01:09:32;;;;;;;110.47;67.45;;;;;;;;;;5000957;28;20041;-66
2021/03/05 01:12:37;;;;;;;97.20;62.63;;;;;;;;;;5001162;28;20132;-67
2021/03/05 01:15:41;;;;;;;95.15;61.30;;;;;;;;;;5012893;28;20041;-66
2021/03/05 01:18:45;;;;;;;96.85;60.90;;;;;;;;;;5012826;28;20053;-67
2021/03/05 01:21:50;;;;;;;96.93;60.78;;;;;;;;;;5012763;28;20037;-66
2021/03/05 01:24:54;;;;;;;86.90;57.50;;;;;;;;;;5012826;28;20513;-67
2021/03/05 01:27:59;;;;;;;88.32;54.72;;;;;;;;;;5012934;28;20393;-67
2021/03/05 01:31:04;;;;;;;86.57;52.47;;;;;;;;;;5012715;28;20045;-68
2021/03/05 01:34:08;;;;;;;85.22;51.63;;;;;;;;;;5012734;28;20052;-67
2021/03/05 01:37:12;;;;;;;82.90;53.63;;;;;;;;;;5012535;28;20048;-67
2021/03/05 01:40:23;;;;;;;73.45;51.10;;;;;;;;;;5012628;28;20041;-67
2021/03/05 01:43:29;;;;;;;73.33;45.30;;;;;;;;;;5012534;28;20044;-67
2021/03/05 01:46:34;;;;;;;69.03;42.22;;;;;;;;;;5012391;28;20045;-67
2021/03/05 01:49:38;;;;;;;66.43;41.08;;;;;;;;;;5012629;28;20061;-67
2021/03/05 01:52:44;;;;;;;63.85;40.60;;;;;;;;;;5012310;28;20049;-67
2021/03/05 01:55:49;;;;;;;59.10;37.83;;;;;;;;;;5000144;28;20060;-67
2021/03/05 01:58:53;;;;;;;55.42;37.70;;;;;;;;;;5012277;28;20052;-67
2021/03/05 02:02:04;;;;;;;54.75;36.53;;;;;;;;;;5012164;28;20409;-67
2021/03/05 02:05:08;;;;;;;66.32;39.55;;;;;;;;;;5000071;28;20056;-67
2021/03/05 02:08:13;;;;;;;64.45;39.83;;;;;;;;;;5012293;28;20425;-67
2021/03/05 02:11:24;;;;;;;61.75;38.83;;;;;;;;;;5012359;28;20053;-67
2021/03/05 02:14:29;;;;;;;60.05;37.00;;;;;;;;;;5011799;28;20524;-67
2021/03/05 02:17:59;;;;;;;57.65;35.20;;;;;;;;;;5012068;28;20041;-67
2021/03/05 02:21:12;;;;;;;63.22;37.67;;;;;;;;;;5000654;28;20117;-67
2021/03/05 02:24:20;;;;;;;57.47;35.20;;;;;;;;;;5012048;28;20044;-67
2021/03/05 02:27:25;;;;;;;54.63;36.58;;;;;;;;;;5011974;28;20523;-66
2021/03/05 02:30:48;;;;;;;58.17;37.63;;;;;;;;;;5011753;28;20045;-67
2021/03/05 02:33:56;;;;;;;58.08;36.30;;;;;;;;;;4999354;28;20049;-67
2021/03/05 02:37:09;;;;;;;60.05;38.83;;;;;;;;;;5011771;28;20041;-66
2021/03/05 02:40:18;;;;;;;64.15;37.88;;;;;;;;;;5011676;28;20060;-67
2021/03/05 02:43:24;;;;;;;60.60;41.38;;;;;;;;;;4999240;28;20045;-67
2021/03/05 02:46:29;;;;;;;63.13;38.55;;;;;;;;;;5011376;28;20057;-66
2021/03/05 02:49:34;;;;;;;67.20;39.53;;;;;;;;;;5011671;28;20041;-67
2021/03/05 02:52:40;;;;;;;55.28;35.70;;;;;;;;;;5011631;28;20048;-67
2021/03/05 02:55:47;;;;;;;52.22;32.38;;;;;;;;;;5011521;28;20389;-67
2021/03/05 02:58:55;;;;;;;60.75;33.88;;;;;;;;;;5011239;28;20045;-67
2021/03/05 03:02:00;;;;;;;57.58;34.00;;;;;;;;;;5011344;28;20061;-67
2021/03/05 03:05:05;;;;;;;49.53;34.17;;;;;;;;;;5011028;28;20057;-67
2021/03/05 03:08:10;;;;;;;55.67;33.55;;;;;;;;;;5011214;28;20057;-67
2021/03/05 03:11:15;;;;;;;58.55;36.67;;;;;;;;;;4999178;28;20417;-69
2021/03/05 03:14:20;;;;;;;59.53;36.25;;;;;;;;;;5011309;28;20065;-67
2021/03/05 03:17:25;;;;;;;61.58;35.97;;;;;;;;;;5011420;28;20160;-67
2021/03/05 03:20:29;;;;;;;57.95;37.35;;;;;;;;;;5011069;28;20045;-67
2021/03/05 03:23:33;;;;;;;57.28;37.13;;;;;;;;;;5011298;28;20191;-67
2021/03/05 03:26:38;;;;;;;60.50;38.50;;;;;;;;;;5011065;28;20077;-66
2021/03/05 03:29:42;;;;;;;66.15;37.42;;;;;;;;;;5011261;28;20068;-66
2021/03/05 03:32:47;;;;;;;63.00;37.38;;;;;;;;;;5014781;28;20605;-66
2021/03/05 03:35:51;;;;;;;62.03;38.85;;;;;;;;;;5015176;28;20049;-66
2021/03/05 03:38:56;;;;;;;62.08;37.63;;;;;;;;;;5002689;28;20033;-67
2021/03/05 03:42:02;;;;;;;62.30;38.70;;;;;;;;;;5015062;28;20043;-67
2021/03/05 03:45:08;;;;;;;65.70;38.58;;;;;;;;;;5002536;28;20041;-66
2021/03/05 03:48:13;;;;;;;60.67;38.65;;;;;;;;;;5014807;28;20049;-67
2021/03/05 03:51:20;;;;;;;61.67;35.92;;;;;;;;;;5002766;28;20470;-67
2021/03/05 03:54:25;;;;;;;62.53;37.72;;;;;;;;;;5014797;28;20432;-66
2021/03/05 03:57:30;;;;;;;61.13;38.10;;;;;;;;;;5014427;28;20049;-66
2021/03/05 04:00:36;;;;;;;64.60;36.10;;;;;;;;;;5014565;28;20044;-66
2021/03/05 04:03:43;;;;;;;66.20;36.55;;;;;;;;;;5014448;28;20044;-66
2021/03/05 04:06:49;;;;;;;59.67;35.50;;;;;;;;;;5013937;28;20061;-66
2021/03/05 04:09:57;;;;;;;57.38;34.33;;;;;;;;;;5014335;28;20053;-66
2021/03/05 04:13:02;;;;;;;52.28;33.58;;;;;;;;;;5014406;28;20052;-67
2021/03/05 04:16:07;;;;;;;57.65;32.67;;;;;;;;;;5014361;28;20056;-66
2021/03/05 04:19:11;;;;;;;49.05;32.35;;;;;;;;;;5014296;28;20049;-67
2021/03/05 04:22:17;;;;;;;51.53;33.35;;;;;;;;;;5014281;28;20045;-67
2021/03/05 04:25:22;;;;;;;52.05;34.35;;;;;;;;;;5013844;28;20520;-66
2021/03/05 04:28:26;;;;;;;59.17;35.47;;;;;;;;;;5014198;28;20049;-67
2021/03/05 04:31:30;;;;;;;57.90;36.55;;;;;;;;;;5014057;28;20061;-66
2021/03/05 04:34:34;;;;;;;68.72;40.30;;;;;;;;;;5013909;28;20049;-66
2021/03/05 04:37:39;;;;;;;56.38;38.00;;;;;;;;;;5013779;28;20049;-67
2021/03/05 04:40:43;;;;;;;61.10;38.03;;;;;;;;;;5013960;28;20057;-66
2021/03/05 04:43:48;;;;;;;61.05;39.35;;;;;;;;;;5012511;28;20060;-66
2021/03/05 04:46:53;;;;;;;63.58;39.55;;;;;;;;;;5013565;28;20052;-66
2021/03/05 04:49:57;;;;;;;65.28;40.83;;;;;;;;;;5013431;28;20037;-66
2021/03/05 04:53:01;;;;;;;65.28;39.72;;;;;;;;;;5013725;28;20069;-67
2021/03/05 04:56:06;;;;;;;62.13;39.08;;;;;;;;;;5013353;28;20040;-66
2021/03/05 04:59:10;;;;;;;62.35;39.15;;;;;;;;;;5013489;28;20406;-66
2021/03/05 05:02:15;;;;;;;62.67;39.00;;;;;;;;;;5001269;28;20037;-67
2021/03/05 05:05:19;;;;;;;65.30;39.30;;;;;;;;;;5013126;28;20036;-67
2021/03/05 05:08:23;;;;;;;62.20;39.67;;;;;;;;;;5013408;28;20048;-67
2021/03/05 05:11:28;;;;;;;65.93;39.70;;;;;;;;;;5001070;28;20045;-67
2021/03/05 05:14:35;;;;;;;74.10;43.95;;;;;;;;;;5013200;28;20049;-66
2021/03/05 05:17:39;;;;;;;68.68;42.28;;;;;;;;;;5001477;28;20498;-67
2021/03/05 05:20:44;;;;;;;67.97;42.00;;;;;;;;;;5013009;28;20040;-67
2021/03/05 05:23:48;;;;;;;70.93;43.40;;;;;;;;;;5013087;28;20053;-66
2021/03/05 05:26:52;;;;;;;71.18;43.30;;;;;;;;;;5012752;28;20050;-67
2021/03/05 05:29:56;;;;;;;73.30;43.13;;;;;;;;;;5013032;28;20041;-67
2021/03/05 05:33:01;;;;;;;67.70;42.85;;;;;;;;;;5013048;28;20605;-66
2021/03/05 05:36:05;;;;;;;73.32;44.40;;;;;;;;;;5012775;28;20516;-67
2021/03/05 05:39:09;;;;;;;71.10;44.15;;;;;;;;;;5012710;28;20052;-67
2021/03/05 05:42:16;;;;;;;74.05;43.05;;;;;;;;;;5012557;28;20045;-67
2021/03/05 05:45:21;;;;;;;67.28;41.45;;;;;;;;;;5000763;28;20049;-67
2021/03/05 05:48:25;;;;;;;67.15;41.75;;;;;;;;;;5012610;28;20049;-66
2021/03/05 05:51:33;;;;;;;66.22;37.92;;;;;;;;;;5012664;28;20069;-67
2021/03/05 05:54:40;;;;;;;68.72;37.28;;;;;;;;;;5012176;28;20052;-73
2021/03/05 05:57:45;;;;;;;70.15;36.53;;;;;;;;;;5012268;28;20045;-67
2021/03/05 06:00:50;;;;;;;55.55;32.28;;;;;;;;;;5012374;28;20593;-67
2021/03/05 06:03:55;;;;;;;60.15;35.13;;;;;;;;;;4989029;28;20508;-67
2021/03/05 06:06:59;;;;;;;55.55;33.72;;;;;;;;;;5012077;28;20061;-67
2021/03/05 06:10:04;;;;;;;66.60;40.50;;;;;;;;;;5012139;28;20053;-67
2021/03/05 06:13:09;;;;;;;80.38;45.58;;;;;;;;;;4999995;28;20048;-66
2021/03/05 06:16:17;;;;;;;81.55;50.95;;;;;;;;;;5012282;28;20393;-67
2021/03/05 06:19:22;;;;;;;72.80;44.25;;;;;;;;;;4999618;28;20041;-67
2021/03/05 06:22:27;;;;;;;62.30;41.47;;;;;;;;;;5011987;28;20048;-66
2021/03/05 06:25:37;;;;;;;71.65;41.35;;;;;;;;;;5011878;28;20052;-68
2021/03/05 06:28:59;;;;;;;76.25;40.78;;;;;;;;;;5011842;28;20117;-69
2021/03/05 06:32:04;;;;;;;62.78;40.25;;;;;;;;;;5012024;28;20065;-67
2021/03/05 06:35:09;;;;;;;58.15;35.80;;;;;;;;;;5011936;28;20045;-68
2021/03/05 06:38:34;;;;;;;73.95;38.45;;;;;;;;;;5011758;28;20068;-66
2021/03/05 06:41:38;;;;;;;70.70;42.08;;;;;;;;;;5011560;28;20041;-68
2021/03/05 06:44:45;;;;;;;59.88;38.05;;;;;;;;;;5011437;28;20041;-68
2021/03/05 06:48:16;;;;;;;65.03;39.75;;;;;;;;;;5011745;28;20045;-67
2021/03/05 06:51:20;;;;;;;75.75;39.80;;;;;;;;;;5011733;28;20048;-68
2021/03/05 06:54:29;;;;;;;65.35;41.53;;;;;;;;;;5011579;28;20394;-68
2021/03/05 06:57:33;;;;;;;64.90;40.65;;;;;;;;;;4999311;28;20045;-67
2021/03/05 07:00:38;;;;;;;68.60;38.75;;;;;;;;;;4999233;28;20053;-69
2021/03/05 07:03:42;;;;;;;60.22;35.65;;;;;;;;;;5011568;28;20045;-66
2021/03/05 07:06:47;;;;;;;55.47;33.70;;;;;;;;;;5010439;28;20053;-67
2021/03/05 07:09:53;;;;;;;52.42;32.75;;;;;;;;;;5010816;28;20033;-67
2021/03/05 07:13:01;;;;;;;56.17;30.67;;;;;;;;;;5010608;28;20049;-68
2021/03/05 07:16:06;;;;;;;49.30;29.35;;;;;;;;;;5011129;28;20058;-72
2021/03/05 07:19:20;;;;;;;59.70;28.42;;;;;;;;;;5011508;28;20041;-68
2021/03/05 07:22:25;;;;;;;50.58;28.85;;;;;;;;;;5011428;28;20049;-67
2021/03/05 07:25:32;;;;;;;48.38;28.10;;;;;;;;;;5011529;28;20045;-70
2021/03/05 07:28:38;;;;;;;70.20;29.95;;;;;;;;;;5011278;28;20056;-69
2021/03/05 07:31:43;;;;;;;58.17;28.10;;;;;;;;;;5011103;28;20053;-68
2021/03/05 07:34:57;;;;;;;50.15;28.17;;;;;;;;;;5010955;28;20386;-71
2021/03/05 07:38:03;;;;;;;57.90;28.98;;;;;;;;;;5011289;28;20071;-73
2021/03/05 07:41:08;;;;;;;48.58;29.88;;;;;;;;;;5011153;28;20041;-71
2021/03/05 07:44:13;;;;;;;44.60;27.33;;;;;;;;;;5010689;28;20049;-71
2021/03/05 07:47:17;;;;;;;43.72;27.77;;;;;;;;;;4998501;28;20056;-71
2021/03/05 07:50:23;;;;;;;44.10;28.83;;;;;;;;;;5010516;28;20041;-69
2021/03/05 07:53:27;;;;;;;55.22;32.20;;;;;;;;;;4998369;28;20045;-72
2021/03/05 07:56:38;;;;;;;46.20;31.58;;;;;;;;;;4998589;28;20053;-72
2021/03/05 07:59:42;;;;;;;44.53;30.13;;;;;;;;;;5010764;28;20045;-69
2021/03/05 08:03:00;;;;;;;52.28;31.20;;;;;;;;;;5010833;28;20045;-69
2021/03/05 08:06:04;;;;;;;49.28;30.20;;;;;;;;;;4998510;28;20060;-70
2021/03/05 08:09:14;;;;;;;45.00;29.27;;;;;;;;;;5010886;28;20049;-71
2021/03/05 08:12:29;;;;;;;60.40;28.30;;;;;;;;;;5010629;28;20595;-69
2021/03/05 08:15:33;;;;;;;41.33;27.13;;;;;;;;;;5010628;28;20053;-70
2021/03/05 08:18:37;;;;;;;41.88;26.60;;;;;;;;;;5014138;28;20052;-70
2021/03/05 08:21:58;;;;;;;42.30;26.70;;;;;;;;;;5014087;28;20049;-69
2021/03/05 08:25:20;;;;;;;33.40;19.80;;;;;;;;;;5001766;28;20052;-70
2021/03/05 08:28:55;;;;;;;23.38;14.18;;;;;;;;;;5013908;28;20053;-72
2021/03/05 08:32:27;;;;;;;30.50;17.48;;;;;;;;;;5013285;28;20044;-70
2021/03/05 08:35:32;;;;;;;26.52;17.58;;;;;;;;;;5001606;28;20045;-76
2021/03/05 08:38:37;;;;;;;31.45;17.00;;;;;;;;;;5001971;28;20049;-72
2021/03/05 08:41:42;;;;;;;22.77;14.20;;;;;;;;;;5013521;28;20045;-74
2021/03/05 08:45:06;;;;;;;27.80;14.57;;;;;;;;;;5013701;28;20073;-71
2021/03/05 08:48:15;;;;;;;18.73;13.15;;;;;;;;;;5013483;28;20053;-71
2021/03/05 08:51:20;;;;;;;22.35;14.43;;;;;;;;;;5013508;28;20049;-70
2021/03/05 08:54:25;;;;;;;26.48;14.75;;;;;;;;;;5013329;28;20056;-72
2021/03/05 08:57:37;;;;;;;28.55;15.95;;;;;;;;;;5013321;28;20045;-70
2021/03/05 09:00:41;;;;;;;21.48;14.50;;;;;;;;;;5013162;28;20045;-71
2021/03/05 09:03:48;;;;;;;20.70;12.82;;;;;;;;;;5013258;28;20389;-71
2021/03/05 09:06:53;;;;;;;25.13;12.35;;;;;;;;;;5000818;28;20520;-71
2021/03/05 09:09:58;;;;;;;17.17;11.85;;;;;;;;;;5012876;28;20576;-69
2021/03/05 09:13:02;;;;;;;18.40;11.60;;;;;;;;;;5013060;28;20045;-69
2021/03/05 09:16:07;;;;;;;19.20;11.68;;;;;;;;;;5012675;28;20140;-70
2021/03/05 09:19:11;;;;;;;29.85;12.93;;;;;;;;;;5013206;28;20045;-70
2021/03/05 09:22:17;;;;;;;23.30;12.48;;;;;;;;;;5013117;28;20040;-70
2021/03/05 09:25:21;;;;;;;24.48;14.38;;;;;;;;;;5012678;28;20492;-70
2021/03/05 09:28:26;;;;;;;34.30;15.13;;;;;;;;;;5000392;28;20044;-70
2021/03/05 09:31:32;;;;;;;26.90;15.07;;;;;;;;;;5012838;28;20045;-71
2021/03/05 09:34:47;;;;;;;23.05;14.38;;;;;;;;;;5012672;28;20057;-71
2021/03/05 09:37:51;;;;;;;30.55;14.02;;;;;;;;;;5012627;28;20045;-69
2021/03/05 09:41:08;;;;;;;22.13;13.10;;;;;;;;;;5012683;28;20061;-69
2021/03/05 09:44:13;;;;;;;24.13;13.57;;;;;;;;;;5012372;28;20041;-69
2021/03/05 09:47:18;;;;;;;22.85;13.40;;;;;;;;;;5012269;28;20061;-70
2021/03/05 09:50:23;;;;;;;27.10;12.45;;;;;;;;;;5012076;28;20516;-69
2021/03/05 09:53:34;;;;;;;22.75;12.05;;;;;;;;;;5011719;28;20037;-69
2021/03/05 09:56:43;;;;;;;28.58;12.88;;;;;;;;;;4989271;28;20037;-69
2021/03/05 09:59:49;;;;;;;18.02;9.93;;;;;;;;;;5012014;28;20072;-70
2021/03/05 10:03:01;;;;;;;16.38;10.00;;;;;;;;;;5012076;28;20033;-68
2021/03/05 10:06:15;;;;;;;20.52;9.73;;;;;;;;;;5012009;28;20074;-69
2021/03/05 10:09:22;;;;;;;14.32;9.38;;;;;;;;;;5011971;28;20041;-69
2021/03/05 10:12:28;;;;;;;16.63;8.10;;;;;;;;;;4999636;28;20038;-68
2021/03/05 10:15:32;;;;;;;20.55;8.60;;;;;;;;;;5011876;28;20521;-69
2021/03/05 10:18:37;;;;;;;16.17;9.05;;;;;;;;;;5012162;28;20053;-68
2021/03/05 10:21:44;;;;;;;16.90;8.93;;;;;;;;;;5012156;28;20038;-69
2021/03/05 10:24:55;;;;;;;14.20;8.50;;;;;;;;;;5011904;28;20041;-71
2021/03/05 10:27:59;;;;;;;15.73;10.23;;;;;;;;;;5010794;28;20057;-69
2021/03/05 10:31:04;;;;;;;14.85;9.80;;;;;;;;;;4999556;28;20049;-69
2021/03/05 10:34:19;;;;;;;22.70;10.93;;;;;;;;;;5011573;28;20049;-70
2021/03/05 10:37:23;;;;;;;17.77;10.00;;;;;;;;;;4999789;28;20044;-70
2021/03/05 10:40:27;;;;;;;17.35;9.43;;;;;;;;;;5010788;28;20045;-70
2021/03/05 10:43:34;;;;;;;16.95;9.45;;;;;;;;;;5011527;28;20051;-71
2021/03/05 10:46:38;;;;;;;16.25;10.02;;;;;;;;;;5011420;28;20049;-68
2021/03/05 10:49:43;;;;;;;23.70;10.38;;;;;;;;;;5011080;28;20053;-70
2021/03/05 10:52:47;;;;;;;19.90;10.40;;;;;;;;;;4999535;28;20057;-71
2021/03/05 10:55:53;;;;;;;16.20;9.85;;;;;;;;;;5011423;28;20041;-67
2021/03/05 10:58:57;;;;;;;17.38;8.65;;;;;;;;;;5011497;28;20041;-70
2021/03/05 11:02:02;;;;;;;16.23;9.18;;;;;;;;;;4999346;28;20056;-72
2021/03/05 11:05:06;;;;;;;19.23;8.98;;;;;;;;;;5011726;28;20492;-70
2021/03/05 11:08:11;;;;;;;18.20;9.23;;;;;;;;;;4991610;28;20046;-71
2021/03/05 11:11:15;;;;;;;23.48;10.80;;;;;;;;;;4990848;28;20035;-69
2021/03/05 11:14:20;;;;;;;14.52;8.85;;;;;;;;;;4991402;28;20524;-70
2021/03/05 11:17:25;;;;;;;19.48;8.82;;;;;;;;;;4991446;28;20043;-71
2021/03/05 11:20:29;;;;;;;22.83;9.60;;;;;;;;;;4991697;28;20035;-71
2021/03/05 11:23:33;;;;;;;13.65;9.55;;;;;;;;;;4992314;28;20387;-73
2021/03/05 11:26:38;;;;;;;17.50;9.05;;;;;;;;;;4991621;28;20039;-72
2021/03/05 11:29:42;;;;;;;24.70;9.48;;;;;;;;;;4991497;28;20114;-72
2021/03/05 11:32:47;;;;;;;18.08;9.70;;;;;;;;;;4991199;28;20030;-71
2021/03/05 11:35:52;;;;;;;22.08;9.45;;;;;;;;;;4991400;28;20051;-71
2021/03/05 11:38:56;;;;;;;31.15;10.20;;;;;;;;;;4991633;28;20046;-71
2021/03/05 11:42:01;;;;;;;18.90;9.65;;;;;;;;;;4991123;28;20042;-70
2021/03/05 11:45:06;;;;;;;27.27;10.32;;;;;;;;;;4990293;28;20038;-70
2021/03/05 11:48:10;;;;;;;17.38;8.05;;;;;;;;;;4991233;28;20057;-71
2021/03/05 11:51:14;;;;;;;34.53;9.95;;;;;;;;;;4991270;28;20047;-71
2021/03/05 11:54:19;;;;;;;25.50;8.30;;;;;;;;;;4994307;28;20042;-71
2021/03/05 11:57:23;;;;;;;29.30;9.25;;;;;;;;;;4995013;28;20503;-70
2021/03/05 12:00:28;;;;;;;16.67;8.30;;;;;;;;;;4994708;28;20418;-71
2021/03/05 12:03:33;;;;;;;19.25;7.90;;;;;;;;;;4994563;28;20051;-70
2021/03/05 12:06:37;;;;;;;15.95;9.25;;;;;;;;;;5002352;28;20509;-70
2021/03/05 12:09:42;;;;;;;28.45;9.65;;;;;;;;;;5014617;28;20053;-70
2021/03/05 12:12:46;;;;;;;16.40;7.78;;;;;;;;;;5014169;28;20038;-71
2021/03/05 12:15:50;;;;;;;16.83;9.38;;;;;;;;;;5014051;28;20375;-69
2021/03/05 12:19:14;;;;;;;18.58;9.30;;;;;;;;;;5004463;28;20034;-70
2021/03/05 12:22:18;;;;;;;25.20;10.68;;;;;;;;;;5014080;28;20041;-69
2021/03/05 12:25:23;;;;;;;27.75;11.15;;;;;;;;;;5014172;28;20061;-69
2021/03/05 12:28:27;;;;;;;22.40;10.23;;;;;;;;;;5014184;28;20485;-69
2021/03/05 12:31:31;;;;;;;22.80;10.35;;;;;;;;;;5013905;28;20041;-69
2021/03/05 12:34:36;;;;;;;35.08;12.70;;;;;;;;;;5013738;28;20403;-70
2021/03/05 12:37:41;;;;;;;24.25;10.07;;;;;;;;;;5013669;28;20041;-69
2021/03/05 12:40:45;;;;;;;14.75;9.57;;;;;;;;;;5013564;28;20049;-70
2021/03/05 12:43:49;;;;;;;15.60;9.63;;;;;;;;;;5001328;28;20030;-70
2021/03/05 12:46:56;;;;;;;29.50;10.80;;;;;;;;;;5013497;28;20042;-69
2021/03/05 12:50:00;;;;;;;27.38;11.93;;;;;;;;;;5013825;28;20041;-69
2021/03/05 12:53:04;;;;;;;26.40;12.65;;;;;;;;;;5013471;28;20045;-70
2021/03/05 12:56:09;;;;;;;26.15;14.60;;;;;;;;;;5013354;28;20041;-69
2021/03/05 12:59:13;;;;;;;26.08;11.15;;;;;;;;;;5013781;28;20386;-69
2021/03/05 13:02:17;;;;;;;27.92;10.23;;;;;;;;;;5013396;28;20041;-69
2021/03/05 13:05:22;;;;;;;25.02;10.65;;;;;;;;;;5012656;28;20493;-70
2021/03/05 13:08:26;;;;;;;18.50;10.20;;;;;;;;;;5012966;28;20057;-69
2021/03/05 13:11:31;;;;;;;35.40;12.95;;;;;;;;;;5012902;28;20045;-70
2021/03/05 13:14:36;;;;;;;18.50;10.02;;;;;;;;;;5013293;28;20068;-69
2021/03/05 13:17:40;;;;;;;18.33;10.45;;;;;;;;;;5013030;28;20053;-69
2021/03/05 13:20:45;;;;;;;29.90;9.23;;;;;;;;;;5012649;28;20049;-70
2021/03/05 13:23:49;;;;;;;46.72;10.80;;;;;;;;;;5012047;28;20041;-69
2021/03/05 13:26:54;;;;;;;19.70;10.80;;;;;;;;;;5012951;28;20048;-74
2021/03/05 13:29:58;;;;;;;19.90;9.95;;;;;;;;;;5012797;28;20572;-69
2021/03/05 13:33:02;;;;;;;19.38;9.20;;;;;;;;;;5012865;28;20061;-70
2021/03/05 13:36:07;;;;;;;16.90;9.90;;;;;;;;;;5000561;28;20046;-69
2021/03/05 13:39:11;;;;;;;18.38;10.57;;;;;;;;;;5012526;28;20640;-70
2021/03/05 13:42:16;;;;;;;23.08;10.98;;;;;;;;;;5012663;28;20056;-71
2021/03/05 13:45:20;;;;;;;18.55;9.40;;;;;;;;;;5012500;28;20037;-72
2021/03/05 13:48:25;;;;;;;25.85;9.63;;;;;;;;;;5000370;28;20522;-70
2021/03/05 13:51:29;;;;;;;18.17;10.40;;;;;;;;;;5000418;28;20044;-70
2021/03/05 13:54:33;;;;;;;18.23;10.00;;;;;;;;;;5000776;28;20402;-69
2021/03/05 13:57:37;;;;;;;17.42;10.68;;;;;;;;;;5012645;28;20053;-70
2021/03/05 14:00:42;;;;;;;22.40;13.10;;;;;;;;;;5012118;28;20504;-68
2021/03/05 14:03:46;;;;;;;19.63;10.18;;;;;;;;;;5012195;28;20052;-69
2021/03/05 14:06:50;;;;;;;24.20;10.77;;;;;;;;;;5011778;28;20061;-69
2021/03/05 14:09:55;;;;;;;18.20;11.18;;;;;;;;;;5011998;28;20037;-69
2021/03/05 14:12:59;;;;;;;20.98;11.93;;;;;;;;;;5011843;28;20429;-69
2021/03/05 14:16:09;;;;;;;25.13;11.00;;;;;;;;;;5011749;28;20057;-68
2021/03/05 14:19:13;;;;;;;21.23;10.52;;;;;;;;;;5012047;28;20044;-69
2021/03/05 14:22:18;;;;;;;20.27;11.20;;;;;;;;;;5011558;28;20045;-69
2021/03/05 14:25:22;;;;;;;18.27;10.85;;;;;;;;;;5012180;28;20061;-69
2021/03/05 14:28:26;;;;;;;55.38;14.30;;;;;;;;;;4999425;28;20053;-70
2021/03/05 14:31:31;;;;;;;18.40;10.88;;;;;;;;;;5011550;28;20052;-70
2021/03/05 14:34:36;;;;;;;19.85;11.95;;;;;;;;;;5011539;28;20032;-69
2021/03/05 14:37:40;;;;;;;24.17;12.23;;;;;;;;;;5011711;28;20398;-72
2021/03/05 14:40:45;;;;;;;22.48;11.60;;;;;;;;;;5011964;28;20048;-70
2021/03/05 14:43:49;;;;;;;21.08;11.13;;;;;;;;;;5011701;28;20413;-70
2021/03/05 14:46:53;;;;;;;19.67;10.13;;;;;;;;;;5011724;28;20052;-69
2021/03/05 14:49:58;;;;;;;26.85;12.10;;;;;;;;;;5011721;28;20049;-68
2021/03/05 14:53:03;;;;;;;21.73;10.95;;;;;;;;;;5011248;28;20052;-70
2021/03/05 14:56:08;;;;;;;21.25;11.23;;;;;;;;;;5011501;28;20045;-70
2021/03/05 14:59:12;;;;;;;14.13;10.45;;;;;;;;;;5011367;28;20040;-71
2021/03/05 15:02:16;;;;;;;13.95;10.07;;;;;;;;;;5011407;28;20069;-69
2021/03/05 15:05:42;;;;;;;18.17;11.13;;;;;;;;;;5011258;28;20040;-69
2021/03/05 15:08:46;;;;;;;19.92;10.68;;;;;;;;;;4998981;28;20052;-69
2021/03/05 15:11:51;;;;;;;18.20;11.93;;;;;;;;;;5011113;28;20045;-69
2021/03/05 15:14:55;;;;;;;20.05;11.13;;;;;;;;;;5011198;28;20049;-70
2021/03/05 15:18:00;;;;;;;24.58;11.77;;;;;;;;;;5010901;28;20102;-70
2021/03/05 15:21:04;;;;;;;21.65;11.05;;;;;;;;;;5010959;28;20394;-70
2021/03/05 15:24:10;;;;;;;27.05;12.10;;;;;;;;;;5011042;28;20397;-69
2021/03/05 15:27:14;;;;;;;21.58;10.85;;;;;;;;;;5012568;28;20049;-70
2021/03/05 15:30:19;;;;;;;37.75;15.02;;;;;;;;;;5014918;28;20041;-70
2021/03/05 15:33:23;;;;;;;24.67;11.98;;;;;;;;;;5014935;28;20413;-68
2021/03/05 15:36:27;;;;;;;23.45;11.73;;;;;;;;;;5014910;28;20045;-71
2021/03/05 15:39:32;;;;;;;25.02;12.32;;;;;;;;;;5014882;28;20529;-69
2021/03/05 15:42:36;;;;;;;29.63;13.77;;;;;;;;;;5014457;28;20056;-70
2021/03/05 15:45:40;;;;;;;29.48;14.30;;;;;;;;;;5014546;28;20425;-72
2021/03/05 15:48:45;;;;;;;32.03;13.00;;;;;;;;;;5014326;28;20053;-71
2021/03/05 15:51:49;;;;;;;29.63;14.07;;;;;;;;;;5014496;28;20401;-69
2021/03/05 15:54:53;;;;;;;22.80;12.60;;;;;;;;;;5014690;28;20049;-69
2021/03/05 15:57:58;;;;;;;29.95;14.00;;;;;;;;;;5014566;28;20045;-70
2021/03/05 16:01:02;;;;;;;37.67;14.13;;;;;;;;;;5002098;28;20073;-71
2021/03/05 16:04:06;;;;;;;26.85;14.45;;;;;;;;;;5014387;28;20045;-69
2021/03/05 16:07:11;;;;;;;35.22;15.25;;;;;;;;;;5013564;28;20065;-71
2021/03/05 16:10:15;;;;;;;30.20;12.70;;;;;;;;;;5014124;28;20041;-69
2021/03/05 16:13:20;;;;;;;26.92;12.57;;;;;;;;;;5014067;28;20049;-70
2021/03/05 16:16:24;;;;;;;41.38;14.00;;;;;;;;;;5014178;28;20045;-71
2021/03/05 16:19:29;;;;;;;34.38;15.90;;;;;;;;;;5014125;28;20040;-70
2021/03/05 16:22:34;;;;;;;29.48;15.55;;;;;;;;;;5013934;28;20048;-69
2021/03/05 16:25:39;;;;;;;30.00;16.10;;;;;;;;;;5013743;28;20232;-69
2021/03/05 16:28:43;;;;;;;26.13;16.00;;;;;;;;;;5013688;28;20057;-70
2021/03/05 16:31:47;;;;;;;27.25;17.33;;;;;;;;;;5001479;28;20037;-70
2021/03/05 16:34:52;;;;;;;24.85;15.57;;;;;;;;;;5013959;28;20117;-71
2021/03/05 16:37:56;;;;;;;27.70;16.52;;;;;;;;;;5013857;28;20053;-71
2021/03/05 16:41:00;;;;;;;28.38;18.25;;;;;;;;;;5013705;28;20512;-71
2021/03/05 16:44:08;;;;;;;20.77;14.70;;;;;;;;;;5013672;28;20049;-71
2021/03/05 16:47:13;;;;;;;19.48;15.27;;;;;;;;;;5001647;28;20049;-70
2021/03/05 16:50:19;;;;;;;25.98;15.50;;;;;;;;;;5013334;28;20040;-70
2021/03/05 16:53:24;;;;;;;23.77;14.43;;;;;;;;;;5013266;28;20398;-70
2021/03/05 16:56:28;;;;;;;25.17;16.42;;;;;;;;;;5013100;28;20049;-68
2021/03/05 16:59:32;;;;;;;27.55;18.52;;;;;;;;;;5013014;28;20045;-70
2021/03/05 17:02:37;;;;;;;29.25;19.55;;;;;;;;;;5012814;28;20354;-69
2021/03/05 17:05:41;;;;;;;30.75;20.77;;;;;;;;;;5000431;28;20044;-69
2021/03/05 17:08:46;;;;;;;38.35;23.80;;;;;;;;;;5012456;28;20053;-70
2021/03/05 17:11:50;;;;;;;30.95;21.83;;;;;;;;;;5012383;28;20045;-69
2021/03/05 17:14:54;;;;;;;32.72;22.00;;;;;;;;;;5012108;28;20045;-70
2021/03/05 17:17:59;;;;;;;28.17;21.00;;;;;;;;;;5012135;28;20033;-70
2021/03/05 17:21:03;;;;;;;39.38;26.13;;;;;;;;;;5012381;28;20057;-69
2021/03/05 17:24:08;;;;;;;165.95;102.18;;;;;;;;;;5012264;28;20045;-69
2021/03/05 17:27:12;;;;;;;59.38;39.08;;;;;;;;;;5012443;28;20049;-68
2021/03/05 17:30:17;;;;;;;42.35;27.92;;;;;;;;;;5000417;28;20508;-68
2021/03/05 17:33:21;;;;;;;43.17;26.50;;;;;;;;;;5012526;28;20048;-71
2021/03/05 17:36:25;;;;;;;40.20;27.02;;;;;;;;;;5012576;28;20049;-69
2021/03/05 17:39:30;;;;;;;49.97;36.20;;;;;;;;;;5012570;28;20052;-67
2021/03/05 17:42:34;;;;;;;53.45;37.00;;;;;;;;;;5012393;28;20052;-68
2021/03/05 17:45:39;;;;;;;45.53;33.40;;;;;;;;;;5012436;28;20045;-69
2021/03/05 17:48:43;;;;;;;43.95;31.48;;;;;;;;;;5012022;28;20056;-70
2021/03/05 17:51:47;;;;;;;46.50;30.35;;;;;;;;;;5000185;28;20045;-69
2021/03/05 17:54:52;;;;;;;49.80;31.10;;;;;;;;;;5012139;28;20049;-68
2021/03/05 17:57:56;;;;;;;47.53;32.45;;;;;;;;;;5012358;28;20512;-69
2021/03/05 18:01:00;;;;;;;50.00;33.05;;;;;;;;;;5012269;28;20234;-70
2021/03/05 18:04:05;;;;;;;52.85;34.13;;;;;;;;;;5011835;28;20049;-69